Terminal Aerodrome Forecast
Issued by NWS Sioux Falls, SD

Home | Current Version | Previous Version | Graphics & Text | Print | Product List | Glossary Off
Versions: 1 2 3 4 5 6 7 8 9 10 11 12 13 14 15 16 17 18 19 20 21 22 23 24 25 26 27 28 29 30 31 32 33 34 35 36 37 38 39 40 41 42 43 44 45 46 47

000
FTUS43 KFSD 010520
TAFSUX
TAF
KSUX 010520Z 0106/0206 13009KT P6SM SCT015 BKN050
      TEMPO 0107/0109 5SM BR BKN015
     FM010900 14008KT 5SM BR OVC012
     FM011800 27007KT P6SM SCT015 OVC100
     FM012100 20005KT P6SM SCT040 BKN100=

USA.gov is the U.S. government's official web portal to all federal, state and local government web resources and services.